• Join FlightAware (Why Join?)
  • Login
  • US Flag 
03:20PM EDT


 

Airport Tracker/Info


-or-


 

Live Flight TrackerFlight Track Log ✈ EZY1939 ✈ 19-Apr-2013 ✈ EGCC / MAN - LGIR / HER

Flight Track Log - Related Links

Times and Time Zones

All times are in EDT time to prevent confusion due to time zone crossing. See the EZY1939 flight status page for this flight to view local times or setup timezone preferences in your user account.

Time Position Orientation Groundspeed Altitude Reporting Facility
EDT Latitude Longitude Course Direction KTS MPH feet Rate Location/Type
11:13AM 53.3410 -2.3000 229° Southwest 165 190 700  Level FlightAware
11:13AM 53.3340 -2.3160 234° Southwest 164 189 1,400 1,620 Climbing FlightAware
11:13AM 53.3210 -2.3430 231° Southwest 190 219 1,800 900 Climbing FlightAware
11:14AM 53.3190 -2.3670 262° West 210 242 2,000 1,020 Climbing FlightAware
11:14AM 53.3190 -2.3990 262° West 236 272 2,400 -2,100 Climbing FlightAware
11:14AM 53.3192 -2.4141 262° West 246 283 1,100 -4,020 Descending FlightAware UK
11:14AM 53.3121 -2.4351 262° West 248 285 1,200 7,260 Climbing FlightAware UK
11:14AM 53.3130 -2.4340 262° West 244 281 2,800 6,300 Climbing FlightAware
11:15AM 53.2980 -2.4490 211° Southwest 250 288 3,000 1,560 Climbing FlightAware
11:15AM 53.2810 -2.4520 186° South 242 278 3,600 -780 Climbing FlightAware
11:15AM 53.2594 -2.4418 186° South 262 302 2,600 2,400 Descending FlightAware UK
11:15AM 53.2520 -2.4350 186° South 261 300 4,600 3,000 Climbing FlightAware
11:16AM 53.2277 -2.4116 186° South 262 302 4,100 2,400 Descending FlightAware UK
11:16AM 53.2200 -2.4050 186° South 271 312 5,800 1,980 Climbing FlightAware
11:16AM 53.2013 -2.3872 186° South 270 311 4,900 2,400 Descending FlightAware UK
11:16AM 53.1880 -2.3720 186° South 281 323 7,000 5,580 Climbing FlightAware
11:17AM 53.1710 -2.3520 145° Southeast 283 326 7,700 2,700 Climbing FlightAware
11:17AM 53.1430 -2.3200 146° Southeast 291 335 8,800 2,400 Climbing FlightAware
11:17AM 53.1100 -2.2820 145° Southeast 298 343 9,900 300 Climbing FlightAware
11:18AM 53.0809 -2.2491 145° Southeast 296 341 9,100 1,500 Descending FlightAware UK
11:18AM 53.0620 -2.2280 145° Southeast 329 379 10,900 1,320 Climbing FlightAware
11:18AM 53.0353 -2.1974 145° Southeast 324 373 9,900 2,100 Descending FlightAware UK
11:19AM 53.0040 -2.1620 145° Southeast 344 396 12,500 3,540 Climbing FlightAware
11:19AM 52.9590 -2.1110 146° Southeast 357 411 13,500 720 Climbing FlightAware
11:20AM 52.9060 -2.0512 146° Southeast 344 396 13,400 2,100 Descending FlightAware UK
11:20AM 52.8990 -2.0440 146° Southeast 358 412 15,100 3,360 Climbing FlightAware
11:21AM 52.8360 -1.9730 146° Southeast 374 430 16,500 480 Climbing FlightAware
11:21AM 52.8033 -1.9361 146° Southeast 356 410 15,600 2,100 Descending FlightAware UK
11:21AM 52.7881 -1.9193 146° Southeast 382 440 17,500 3,960 Climbing FlightAware ADS-B
11:22AM 52.7426 -1.8685 146° Southeast 385 443 18,400 -180 Climbing FlightAware ADS-B
11:22AM 52.7149 -1.8374 146° Southeast 364 419 17,400 1,620 Descending FlightAware UK
11:22AM 52.6923 -1.8124 146° Southeast 395 455 19,300 3,480 Climbing FlightAware ADS-B
11:23AM 52.6510 -1.7660 146° Southeast 391 450 20,200 1,800 Climbing FlightAware
11:23AM 52.6325 -1.7461 147° Southeast 401 461 20,500 -2,520 Climbing FlightAware ADS-B
11:23AM 52.6047 -1.7151 147° Southeast 376 433 19,200 840 Descending FlightAware UK
11:24AM 52.5900 -1.6990 147° Southeast 409 471 21,000 4,920 Climbing FlightAware
11:24AM 52.5601 -1.6661 146° Southeast 404 465 21,600 -600 Climbing FlightAware ADS-B
11:24AM 52.5292 -1.6320 146° Southeast 384 442 20,700 1,800 Descending FlightAware UK
11:24AM 52.5074 -1.6081 146° Southeast 412 474 22,600 2,880 Climbing FlightAware ADS-B
11:25AM 52.4578 -1.5533 146° Southeast 427 491 22,900 -1,440 Climbing FlightAware ADS-B
11:25AM 52.4324 -1.5251 146° Southeast 404 465 21,500 720 Descending FlightAware UK
11:26AM 52.4062 -1.4967 146° Southeast 440 506 23,300 3,600 Climbing FlightAware ADS-B
11:26AM 52.3569 -1.4432 146° Southeast 436 502 24,300 -240 Climbing FlightAware ADS-B
11:26AM 52.3210 -1.4040 146° Southeast 412 474 23,100 1,080 Descending FlightAware UK
11:27AM 52.3026 -1.3842 146° Southeast 441 507 24,900 3,420 Climbing FlightAware ADS-B
11:27AM 52.2511 -1.3282 146° Southeast 446 513 25,500 960 Climbing FlightAware ADS-B
11:28AM 52.1989 -1.2716 146° Southeast 454 522 25,900 840 Climbing FlightAware ADS-B
11:28AM 52.1445 -1.2128 146° Southeast 460 529 26,400 -720 Climbing FlightAware ADS-B
11:28AM 52.1022 -1.1670 146° Southeast 426 490 25,300 780 Descending FlightAware UK
11:29AM 52.0905 -1.1546 146° Southeast 466 536 26,800 3,720 Climbing FlightAware ADS-B
11:29AM 52.0463 -1.1071 147° Southeast 469 540 27,300 960 Climbing FlightAware ADS-B
11:29AM 52.0061 -1.0592 144° Southeast 469 540 27,600 840 Climbing FlightAware ADS-B
11:30AM 51.9880 -1.0348 140° Southeast 467 537 27,800 1,020 Climbing FlightAware ADS-B
11:30AM 51.9513 -0.9789 137° Southeast 464 534 28,200 -1,320 Climbing FlightAware ADS-B
11:30AM 51.9218 -0.9299 137° Southeast 444 511 26,900 720 Descending FlightAware UK
11:30AM 51.9044 -0.9005 137° Southeast 467 537 28,600 3,300 Climbing FlightAware ADS-B
11:31AM 51.8587 -0.8247 134° Southeast 464 534 29,300 1,260 Climbing FlightAware ADS-B
11:31AM 51.8410 -0.7948 134° Southeast 463 533 29,500 600 Climbing FlightAware ADS-B
11:31AM 51.8301 -0.7732 129° Southeast 459 528 29,500 660 Level FlightAware ADS-B
11:31AM 51.8182 -0.7452 124° Southeast 453 521 29,700 1,020 Climbing FlightAware ADS-B
11:32AM 51.7861 -0.6576 121° Southeast 453 521 30,200 1,080 Climbing FlightAware ADS-B
11:32AM 51.7533 -0.5705 121° Southeast 450 518 30,800 -1,020 Climbing FlightAware ADS-B
11:33AM 51.7344 -0.5200 121° Southeast 444 511 29,400 600 Descending FlightAware UK
11:33AM 51.7203 -0.4830 121° Southeast 454 522 31,100 2,820 Climbing FlightAware ADS-B
11:33AM 51.6885 -0.3981 121° Southeast 457 526 31,500 660 Climbing FlightAware ADS-B
11:34AM 51.6539 -0.3063 121° Southeast 460 529 31,800 -1,440 Climbing FlightAware ADS-B
11:34AM 51.6356 -0.2584 121° Southeast 444 511 30,400 360 Descending FlightAware UK
11:34AM 51.6202 -0.2181 121° Southeast 466 536 32,000 780 Climbing FlightAware ADS-B
11:35AM 51.5952 -0.1525 121° Southeast 450 518 30,900 1,140 Descending FlightAware UK
11:35AM 51.5859 -0.1282 121° Southeast 460 529 32,600 960 Climbing FlightAware ADS-B
11:35AM 51.5683 -0.0825 121° Southeast 444 511 31,300 780 Descending FlightAware UK
11:36AM 51.5524 -0.0407 121° Southeast 461 531 33,000 2,760 Climbing FlightAware ADS-B
11:36AM 51.5188 0.0468 122° Southeast 459 528 33,400 720 Climbing FlightAware ADS-B
11:37AM 51.4849 0.1351 122° Southeast 459 528 33,800 660 Climbing FlightAware ADS-B
11:37AM 51.4494 0.2271 122° Southeast 462 532 34,100 -1,200 Climbing FlightAware ADS-B
11:37AM 51.4207 0.3010 122° Southeast 448 516 32,700 540 Descending FlightAware UK
11:38AM 51.4133 0.3203 122° Southeast 465 535 34,400 600 Climbing FlightAware ADS-B
11:38AM 51.3869 0.3883 122° Southeast 444 511 33,000 360 Descending FlightAware UK
11:38AM 51.3767 0.4144 122° Southeast 466 536 34,600 3,000 Climbing FlightAware ADS-B
11:39AM 51.3418 0.5032 122° Southeast 463 533 35,000 360 Climbing FlightAware ADS-B
11:39AM 51.3075 0.5905 122° Southeast 461 531 35,000  Level FlightAware ADS-B
11:40AM 51.2732 0.6781 122° Southeast 461 531 35,000 -1,800 Level FlightAware ADS-B
11:40AM 51.2505 0.7359 122° Southeast 446 513 33,500  Descending FlightAware UK
11:40AM 51.2400 0.7625 122° Southeast 467 537 35,000  Climbing FlightAware ADS-B
11:40AM 51.2160 0.8233 122° Southeast 450 518 33,500  Descending FlightAware UK
11:41AM 51.2032 0.8554 122° Southeast 468 539 35,000  Climbing FlightAware ADS-B
11:41AM 51.1812 0.9107 122° Southeast 448 516 33,500  Descending FlightAware UK
11:41AM 51.1682 0.9435 122° Southeast 469 540 35,000 2,100 Climbing FlightAware ADS-B
11:42AM 51.1330 1.0315 123° Southeast 470 541 35,000 -1,980 Level FlightAware ADS-B
11:42AM 51.1113 1.0856 123° Southeast 450 518 33,400  Descending FlightAware UK
11:42AM 51.0980 1.1192 123° Southeast 471 542 35,000 2,220 Climbing FlightAware ADS-B
11:43AM 51.0620 1.2086 123° Southeast 471 542 35,000  Level FlightAware ADS-B
11:43AM 51.0210 1.3090 123° Southeast 470 541 35,000  Level FlightAware
11:43AM 51.0057 1.3480 122° Southeast 470 541 35,000 -2,580 Level FlightAware ADS-B
11:44AM 50.9775 1.4176 122° Southeast 456 525 33,500 180 Descending FlightAware UK
11:44AM 50.9688 1.4410 122° Southeast 469 540 35,100  Climbing FlightAware ADS-B
11:44AM 50.9465 1.5080 122° Southeast 454 522 33,500 -240 Descending FlightAware UK
11:45AM 50.9400 1.5313 122° Southeast 464 534 35,000 2,760 Climbing FlightAware ADS-B
11:45AM 50.9201 1.6042 113° Southeast 464 534 35,000  Level FlightAware ADS-B
11:45AM 50.9074 1.6449 116° Southeast 463 533 35,000  Level FlightAware ADS-B
11:46AM 50.8743 1.7320 121° Southeast 463 533 35,000  Level FlightAware ADS-B
11:46AM 50.8501 1.7841 126° Southeast 461 531 35,000  Level FlightAware ADS-B
11:46AM 50.8232 1.8345 130° Southeast 461 531 35,000 -2,580 Level FlightAware ADS-B
11:47AM 50.7957 1.8802 130° Southeast 450 518 33,400  Descending FlightAware UK
11:47AM 50.7770 1.9087 130° Southeast 461 531 35,000  Climbing FlightAware ADS-B
11:47AM 50.7411 1.9650 130° Southeast 446 513 33,400  Descending FlightAware UK
11:47AM 50.7244 1.9916 130° Southeast 461 531 35,000  Climbing FlightAware ADS-B
11:48AM 50.6957 2.0367 130° Southeast 450 518 33,400  Descending FlightAware UK
11:48AM 50.6767 2.0663 130° Southeast 462 532 35,000 2,220 Climbing FlightAware ADS-B
11:48AM 50.6311 2.1377 135° Southeast 459 528 35,000  Level FlightAware ADS-B
11:49AM 50.5842 2.2109 135° Southeast 459 528 35,000 -1,560 Level FlightAware ADS-B
11:49AM 50.5421 2.2767 135° Southeast 452 520 33,500  Descending FlightAware UK
11:50AM 50.5270 2.3000 135° Southeast 456 525 35,000 1,500 Climbing FlightAware
11:50AM 50.4580 2.4060 136° Southeast 456 525 35,000  Level FlightAware
11:51AM 50.4000 2.4950 136° Southeast 457 526 35,000  Level FlightAware
11:52AM 50.3350 2.5960 135° Southeast 457 526 35,000 -1,440 Level FlightAware
11:52AM 50.2984 2.6512 135° Southeast 452 520 33,500  Descending FlightAware UK
11:52AM 50.2680 2.6980 135° Southeast 457 526 35,000 1,440 Climbing FlightAware
11:53AM 50.2130 2.7810 136° Southeast 458 527 35,000  Level FlightAware
11:54AM 50.1490 2.8790 136° Southeast 458 527 35,000 -1,560 Level FlightAware
11:54AM 50.1167 2.9277 136° Southeast 452 520 33,500  Descending FlightAware UK
11:55AM 50.0780 2.9850 136° Southeast 457 526 35,000  Climbing FlightAware
11:55AM 50.0528 3.0235 136° Southeast 448 516 33,500  Descending FlightAware UK
11:55AM 50.0160 3.0780 136° Southeast 458 527 35,000 -180 Climbing FlightAware
11:55AM 49.9887 3.1195 136° Southeast 448 516 33,400  Descending FlightAware UK
11:56AM 49.9490 3.1790 136° Southeast 459 528 35,000  Climbing FlightAware
11:56AM 49.9152 3.2277 136° Southeast 1 1 33,400 -2,400 Descending FlightAware UK
11:57AM 49.8874 3.2680 137° Southeast 1 1 33,500 4,800 Climbing FlightAware UK
11:57AM 49.8890 3.2680 137° Southeast 459 528 35,000  Climbing FlightAware
11:57AM 49.8413 3.3354 137° Southeast 1 1 33,500 120 Descending FlightAware UK
11:57AM 49.8270 3.3600 137° Southeast 458 527 35,100  Climbing FlightAware
11:58AM 49.7864 3.4172 137° Southeast 1 1 33,500  Descending FlightAware UK
11:58AM 49.7590 3.4620 137° Southeast 454 522 35,100 1,440 Climbing FlightAware
11:59AM 49.6960 3.5540 137° Southeast 452 520 35,000 -120 Descending FlightAware
11:59AM 49.6320 3.6490 136° Southeast 451 519 35,000  Level FlightAware
12:00PM 49.5690 3.7400 137° Southeast 452 520 35,000  Level FlightAware
12:01PM 49.5090 3.8290 136° Southeast 452 520 35,000 -1,500 Level FlightAware
12:01PM 49.4700 3.8878 136° Southeast 1 1 33,400  Descending FlightAware UK
12:02PM 49.4440 3.9220 136° Southeast 452 520 35,000 120 Climbing FlightAware
12:02PM 49.4054 3.9771 136° Southeast 1 1 33,500  Descending FlightAware UK
12:02PM 49.3810 4.0150 136° Southeast 451 519 35,000  Climbing FlightAware
12:02PM 49.3509 4.0575 136° Southeast 1 1 33,500 -2,580 Descending FlightAware UK
12:03PM 49.3236 4.0969 137° Southeast 1 1 33,500 3,180 Level FlightAware UK
12:03PM 49.3140 4.1110 137° Southeast 451 519 35,000 1,800 Climbing FlightAware
12:04PM 49.2520 4.2000 137° Southeast 449 517 35,000  Level FlightAware
12:04PM 49.1850 4.2960 137° Southeast 451 519 35,000  Level FlightAware
12:05PM 49.1380 4.3810 130° Southeast 454 522 35,000  Level FlightAware
12:06PM 49.0720 4.5470 121° Southeast 459 528 35,000  Level FlightAware
12:07PM 49.0360 4.6480 119° Southeast 454 522 35,000  Level FlightAware
12:07PM 48.9860 4.7840 119° Southeast 461 531 35,000  Level FlightAware
12:08PM 48.9440 4.8980 119° Southeast 462 532 35,000  Level FlightAware
12:09PM 48.8970 5.0260 119° Southeast 462 532 35,000  Level FlightAware
12:09PM 48.8550 5.1400 119° Southeast 463 533 35,000  Level FlightAware
12:10PM 48.8110 5.2600 119° Southeast 463 533 35,000 60 Level FlightAware
12:11PM 48.7660 5.3790 120° Southeast 460 529 35,100  Climbing FlightAware
12:12PM 48.7240 5.4900 120° Southeast 458 527 35,000 -120 Descending FlightAware
12:12PM 48.6800 5.6090 119° Southeast 456 525 35,000  Level FlightAware
12:13PM 48.6380 5.7190 120° Southeast 454 522 35,000  Level FlightAware
12:14PM 48.5940 5.8360 120° Southeast 454 522 35,000  Level FlightAware
12:14PM 48.5470 5.9590 120° Southeast 455 524 35,000  Level FlightAware
12:15PM 48.5130 6.0500 119° Southeast 455 524 35,000  Level FlightAware
12:16PM 48.4310 6.2610 120° Southeast 450 518 35,100  Climbing FlightAware
12:17PM 48.3830 6.3860 120° Southeast 447 514 35,000 -120 Descending FlightAware
12:18PM 48.3430 6.4890 120° Southeast 444 511 35,000  Level FlightAware
12:19PM 48.2890 6.6270 120° Southeast 441 507 35,000  Level FlightAware
12:19PM 48.2430 6.7440 121° Southeast 438 504 35,000  Level FlightAware
12:20PM 48.2020 6.8490 120° Southeast 432 497 35,000  Level FlightAware
12:21PM 48.1620 6.9500 121° Southeast 431 496 35,000  Level FlightAware
12:21PM 48.1140 7.0700 121° Southeast 437 503 35,000  Level FlightAware
12:22PM 48.0730 7.1730 121° Southeast 438 504 35,000  Level FlightAware
12:23PM 48.0270 7.2900 120° Southeast 438 504 35,000  Level FlightAware
12:23PM 47.9850 7.3940 121° Southeast 437 503 35,000 60 Level FlightAware
12:24PM 47.9390 7.5060 121° Southeast 435 501 35,100  Climbing FlightAware
12:25PM 47.9010 7.6140 118° Southeast 444 511 35,000 -120 Descending FlightAware
12:26PM 47.8760 7.7270 108° East 452 520 35,000  Level FlightAware
12:26PM 47.8470 7.8680 107° East 450 518 35,000  Level FlightAware
12:27PM 47.8240 7.9820 107° East 451 519 35,000  Level FlightAware
12:28PM 47.8000 8.0980 107° East 452 520 35,000  Level FlightAware
12:28PM 47.7720 8.2320 107° East 454 522 35,000  Level FlightAware
12:29PM 47.7470 8.3570 107° East 457 526 35,000  Level FlightAware
12:30PM 47.7190 8.4910 107° East 457 526 35,000  Level FlightAware
12:30PM 47.6930 8.6100 108° East 460 529 35,000  Level FlightAware
12:31PM 47.6680 8.7330 107° East 463 533 35,000 60 Level FlightAware
12:32PM 47.6380 8.8710 108° East 463 533 35,100  Climbing FlightAware
12:33PM 47.6130 8.9880 108° East 463 533 35,000 -120 Descending FlightAware
12:33PM 47.5830 9.1270 108° East 462 532 35,000  Level FlightAware
12:34PM 47.5460 9.2390 116° Southeast 457 526 35,000  Level FlightAware
12:35PM 47.5100 9.3440 117° Southeast 461 531 35,000  Level FlightAware
12:35PM 47.4640 9.4790 117° Southeast 462 532 35,000 60 Level FlightAware
12:36PM 47.4260 9.5910 117° Southeast 460 529 35,100  Climbing FlightAware
12:37PM 47.3840 9.7140 117° Southeast 459 528 35,000 -120 Descending FlightAware
12:37PM 47.3450 9.8270 117° Southeast 458 527 35,000  Level FlightAware
12:38PM 47.3070 9.9390 117° Southeast 458 527 35,000  Level FlightAware
12:39PM 47.2640 10.0610 117° Southeast 455 524 35,000  Level FlightAware
12:40PM 47.2250 10.1720 117° Southeast 453 521 35,000  Level FlightAware
12:40PM 47.1820 10.2950 117° Southeast 452 520 35,000  Level FlightAware
12:41PM 47.1460 10.3970 117° Southeast 453 521 35,000  Level FlightAware
12:42PM 47.1100 10.4990 117° Southeast 454 522 35,000  Level FlightAware
12:42PM 47.0640 10.6270 118° Southeast 452 520 35,000  Level FlightAware
12:43PM 47.0110 10.7330 126° Southeast 442 509 35,000  Level FlightAware
12:44PM 46.9430 10.8260 137° Southeast 433 498 35,000  Level FlightAware
12:44PM 46.8800 10.8920 144° Southeast 431 496 35,000  Level FlightAware
12:45PM 46.8070 10.9690 144° Southeast 432 497 35,000  Level FlightAware
12:46PM 46.7410 11.0360 145° Southeast 433 498 35,000  Level FlightAware
12:47PM 46.6750 11.1050 144° Southeast 434 499 35,000  Level FlightAware
12:47PM 46.6010 11.1800 145° Southeast 431 496 35,000  Level FlightAware
12:48PM 46.5360 11.2470 145° Southeast 431 496 35,000  Level FlightAware
12:49PM 46.4630 11.3210 145° Southeast 431 496 35,000  Level FlightAware
12:49PM 46.3980 11.3860 145° Southeast 434 499 35,000  Level FlightAware
12:50PM 46.3360 11.4470 146° Southeast 430 495 35,000  Level FlightAware
12:51PM 46.2580 11.5240 146° Southeast 433 498 35,000  Level FlightAware
12:51PM 46.1900 11.5910 146° Southeast 435 501 35,000  Level FlightAware
12:52PM 46.1210 11.6580 146° Southeast 444 511 35,000  Level FlightAware
12:53PM 46.0580 11.7580 132° Southeast 453 521 35,000  Level FlightAware
12:54PM 46.0070 11.8570 127° Southeast 458 527 35,000  Level FlightAware
12:54PM 45.9490 11.9670 127° Southeast 459 528 35,000  Level FlightAware
12:55PM 45.8980 12.0640 127° Southeast 460 529 35,000  Level FlightAware
12:56PM 45.8470 12.1610 127° Southeast 459 528 35,000  Level FlightAware
12:56PM 45.7900 12.2690 127° Southeast 459 528 35,000  Level FlightAware
12:57PM 45.7390 12.3660 127° Southeast 459 528 35,000  Level FlightAware
12:58PM 45.6830 12.4710 127° Southeast 459 528 35,000  Level FlightAware
12:58PM 45.6300 12.5710 127° Southeast 455 524 35,000  Level FlightAware
12:59PM 45.5790 12.6670 127° Southeast 456 525 35,000  Level FlightAware
01:00PM 45.5210 12.7780 127° Southeast 461 531 35,000  Level FlightAware
01:01PM 45.4760 12.8710 125° Southeast 461 531 35,000  Level FlightAware
01:01PM 45.4260 12.9750 124° Southeast 461 531 35,000  Level FlightAware
01:02PM 45.3680 13.0910 125° Southeast 461 531 35,000  Level FlightAware
01:03PM 45.3180 13.1920 125° Southeast 460 529 35,000  Level FlightAware
01:03PM 45.2620 13.3040 125° Southeast 459 528 35,000  Level FlightAware
01:04PM 45.2140 13.4010 125° Southeast 458 527 35,000  Level FlightAware
01:05PM 45.1660 13.4960 126° Southeast 458 527 35,000  Level FlightAware
01:05PM 45.1080 13.6120 125° Southeast 457 526 35,000  Level FlightAware
01:06PM 45.0600 13.7080 125° Southeast 457 526 35,000  Level FlightAware
01:07PM 45.0030 13.8200 126° Southeast 456 525 35,000  Level FlightAware
01:08PM 44.9530 13.9180 126° Southeast 457 526 35,000  Level FlightAware
01:08PM 44.8980 14.0250 126° Southeast 456 525 35,000  Level FlightAware
01:09PM 44.8470 14.1260 125° Southeast 455 524 35,000  Level FlightAware
01:10PM 44.7980 14.2200 126° Southeast 455 524 35,000  Level FlightAware
01:10PM 44.7410 14.3300 126° Southeast 455 524 35,000  Level FlightAware
01:11PM 44.6930 14.4220 126° Southeast 461 531 35,000  Level FlightAware
01:12PM 44.6350 14.5350 126° Southeast 461 531 35,000  Level FlightAware
01:12PM 44.5850 14.6300 126° Southeast 462 532 35,000  Level FlightAware
01:13PM 44.5340 14.7280 126° Southeast 462 532 35,000  Level FlightAware
01:14PM 44.4840 14.8220 127° Southeast 464 534 35,000  Level FlightAware
01:15PM 44.4290 14.9270 126° Southeast 465 535 35,000  Level FlightAware
01:15PM 44.3750 15.0290 127° Southeast 467 537 35,000  Level FlightAware
01:16PM 44.3110 15.1500 126° Southeast 466 536 35,000  Level FlightAware
01:17PM 44.2590 15.2480 127° Southeast 466 536 35,000  Level FlightAware
01:17PM 44.2050 15.3490 127° Southeast 464 534 35,000  Level FlightAware
01:18PM 44.1560 15.4390 127° Southeast 463 533 35,000  Level FlightAware
01:19PM 44.0950 15.5530 127° Southeast 463 533 35,000  Level FlightAware
01:20PM 44.0310 15.6720 127° Southeast 463 533 35,000  Level FlightAware
01:20PM 43.9730 15.7780 127° Southeast 464 534 35,000  Level FlightAware
01:21PM 43.9180 15.8780 127° Southeast 466 536 35,000  Level FlightAware
01:22PM 43.8680 15.9710 127° Southeast 466 536 35,000  Level FlightAware
01:23PM 43.8050 16.0860 127° Southeast 468 539 35,000  Level FlightAware
01:23PM 43.7510 16.1830 128° Southeast 467 537 35,000  Level FlightAware
01:24PM 43.6940 16.2860 127° Southeast 466 536 35,000  Level FlightAware
01:25PM 43.6400 16.3830 128° Southeast 468 539 35,000  Level FlightAware
01:25PM 43.5810 16.4900 127° Southeast 470 541 35,000  Level FlightAware
01:26PM 43.5270 16.5870 127° Southeast 470 541 35,000  Level FlightAware
01:27PM 43.4750 16.6790 128° Southeast 470 541 35,000  Level FlightAware
01:27PM 43.4210 16.7760 127° Southeast 470 541 35,000  Level FlightAware
01:28PM 43.3630 16.8790 128° Southeast 470 541 35,000  Level FlightAware
01:29PM 43.3100 16.9730 128° Southeast 471 542 35,000  Level FlightAware
01:30PM 43.2470 17.0830 128° Southeast 472 543 35,000  Level FlightAware
01:30PM 43.1870 17.1880 128° Southeast 475 547 35,000  Level FlightAware
01:31PM 43.1350 17.2800 128° Southeast 477 549 35,000  Level FlightAware
01:32PM 43.0720 17.3900 128° Southeast 476 548 35,000  Level FlightAware
01:32PM 43.0180 17.4840 128° Southeast 474 545 35,000  Level FlightAware
01:33PM 42.9630 17.5780 129° Southeast 474 545 35,000  Level FlightAware
01:34PM 42.9050 17.6790 128° Southeast 471 542 35,000  Level FlightAware
01:34PM 42.8500 17.7740 128° Southeast 471 542 35,000  Level FlightAware
01:35PM 42.7950 17.8670 129° Southeast 471 542 35,000  Level FlightAware
01:36PM 42.7350 17.9700 128° Southeast 471 542 35,000  Level FlightAware
01:36PM 42.6960 18.0360 129° Southeast 468 539 35,000  Level FlightAware
01:37PM 42.6110 18.1560 134° Southeast 474 545 35,000  Level FlightAware
01:38PM 42.5480 18.2400 135° Southeast 475 547 35,000  Level FlightAware
01:39PM 42.4860 18.3230 135° Southeast 475 547 35,000  Level FlightAware
01:39PM 42.4190 18.4120 136° Southeast 476 548 35,000  Level FlightAware
01:40PM 42.3510 18.5030 135° Southeast 478 550 35,000  Level FlightAware
01:41PM 42.3040 18.5660 135° Southeast 477 549 35,000  Level FlightAware
01:41PM 42.2190 18.6780 136° Southeast 478 550 35,000  Level FlightAware
01:42PM 42.1670 18.7460 136° Southeast 478 550 35,000  Level FlightAware
01:43PM 42.0830 18.8560 136° Southeast 478 550 35,000  Level FlightAware
01:44PM 42.0180 18.9410 136° Southeast 478 550 35,000  Level FlightAware
01:44PM 41.9560 19.0220 136° Southeast 480 552 35,000  Level FlightAware
01:45PM 41.8870 19.1120 136° Southeast 482 555 35,000 120 Level FlightAware
01:46PM 41.8270 19.1900 136° Southeast 487 560 35,200 420 Climbing FlightAware
01:46PM 41.7460 19.2950 136° Southeast 492 566 35,600 720 Climbing FlightAware
01:47PM 41.6800 19.3800 136° Southeast 487 560 36,300 900 Climbing FlightAware
01:48PM 41.6160 19.4620 136° Southeast 485 558 36,800 480 Climbing FlightAware
01:48PM 41.5460 19.5530 136° Southeast 483 556 37,000 120 Climbing FlightAware
01:49PM 41.4800 19.6360 137° Southeast 480 552 37,000  Level FlightAware
01:50PM 41.4080 19.7280 136° Southeast 480 552 37,000  Level FlightAware
01:51PM 41.3470 19.8100 135° Southeast 481 554 37,000 60 Level FlightAware
01:51PM 41.2850 19.8960 134° Southeast 482 555 37,100 60 Climbing FlightAware
01:52PM 41.2090 19.9980 135° Southeast 483 556 37,100 -60 Level FlightAware
01:53PM 41.1280 20.1060 135° Southeast 481 554 37,000 -120 Descending FlightAware
01:54PM 41.0640 20.1910 135° Southeast 480 552 37,000  Level FlightAware
01:54PM 40.9970 20.2800 135° Southeast 475 547 37,000  Level FlightAware
01:55PM 40.9320 20.3670 135° Southeast 469 540 37,000  Level FlightAware
01:56PM 40.8660 20.4540 135° Southeast 465 535 37,000  Level FlightAware
01:56PM 40.8030 20.5360 135° Southeast 466 536 37,000  Level FlightAware
01:57PM 40.7420 20.6170 135° Southeast 469 540 37,000  Level FlightAware
01:58PM 40.6720 20.7090 135° Southeast 472 543 37,000  Level FlightAware
01:58PM 40.6210 20.7730 136° Southeast 476 548 37,000 60 Level FlightAware
01:59PM 40.5510 20.8580 137° Southeast 481 554 37,100 60 Climbing FlightAware
02:00PM 40.4720 20.9530 138° Southeast 481 554 37,100 -120 Level FlightAware
02:01PM 40.4080 21.0310 137° Southeast 479 551 37,000  Descending FlightAware
02:01PM 40.3360 21.1190 137° Southeast 477 549 37,100  Climbing FlightAware
02:02PM 40.2700 21.1980 138° Southeast 471 542 37,000 -120 Descending FlightAware
02:03PM 40.2060 21.2760 137° Southeast 470 541 37,000  Level FlightAware
02:03PM 40.1340 21.3620 138° Southeast 476 548 37,000  Level FlightAware
02:04PM 40.0670 21.4410 138° Southeast 469 540 37,000  Level FlightAware
02:05PM 39.9950 21.5280 137° Southeast 469 540 37,000  Level FlightAware
02:05PM 39.9300 21.6050 138° Southeast 477 549 37,000  Level FlightAware
02:06PM 39.8560 21.6930 138° Southeast 479 551 37,000  Level FlightAware
02:07PM 39.7840 21.7780 138° Southeast 481 554 37,000  Level FlightAware
02:08PM 39.7170 21.8570 138° Southeast 482 555 37,000  Level FlightAware
02:08PM 39.6520 21.9340 138° Southeast 479 551 37,000  Level FlightAware
02:09PM 39.5760 22.0230 138° Southeast 482 555 37,000  Level FlightAware
02:10PM 39.5090 22.1020 138° Southeast 484 557 37,000 60 Level FlightAware
02:10PM 39.4340 22.1890 138° Southeast 484 557 37,100 60 Climbing FlightAware
02:11PM 39.3660 22.2680 138° Southeast 479 551 37,100 -120 Level FlightAware
02:12PM 39.2990 22.3460 138° Southeast 477 549 37,000 -120 Descending FlightAware
02:13PM 39.2250 22.4320 138° Southeast 480 552 37,000  Level FlightAware
02:13PM 39.1580 22.5090 138° Southeast 480 552 37,000  Level FlightAware
02:14PM 39.0920 22.5850 138° Southeast 480 552 37,000  Level FlightAware
02:15PM 39.0190 22.6690 138° Southeast 479 551 37,000  Level FlightAware
02:15PM 38.9560 22.7410 138° Southeast 474 545 37,000  Level FlightAware
02:16PM 38.8760 22.8320 138° Southeast 477 549 37,000  Level FlightAware
02:17PM 38.8070 22.9110 138° Southeast 484 557 37,000 60 Level FlightAware
02:17PM 38.7310 22.9970 139° Southeast 483 556 37,100  Climbing FlightAware
02:18PM 38.6640 23.0720 139° Southeast 481 554 37,000 -120 Descending FlightAware
02:19PM 38.5970 23.1480 138° Southeast 482 555 37,000  Level FlightAware
02:20PM 38.5240 23.2310 138° Southeast 480 552 37,000  Level FlightAware
02:20PM 38.4570 23.3060 139° Southeast 480 552 37,000  Level FlightAware
02:21PM 38.3800 23.3920 139° Southeast 479 551 37,000  Level FlightAware
02:22PM 38.3140 23.4650 139° Southeast 476 548 37,000  Level FlightAware
02:22PM 38.2480 23.5390 139° Southeast 474 545 37,000  Level FlightAware
02:23PM 38.1750 23.6200 139° Southeast 472 543 37,000  Level FlightAware
02:24PM 38.1090 23.6930 139° Southeast 471 542 37,000  Level FlightAware
02:24PM 38.0340 23.7770 139° Southeast 473 544 37,000  Level FlightAware
02:25PM 37.9690 23.8490 139° Southeast 474 545 37,000  Level FlightAware
02:26PM 37.9020 23.9220 139° Southeast 474 545 37,000  Level FlightAware
02:27PM 37.8280 24.0020 139° Southeast 473 544 37,000  Level FlightAware
02:27PM 37.7600 24.0770 139° Southeast 475 547 37,000  Level FlightAware
02:28PM 37.6860 24.1570 139° Southeast 477 549 37,000  Level FlightAware
02:29PM 37.6190 24.2300 139° Southeast 477 549 37,000  Level FlightAware
02:29PM 37.5510 24.3010 140° Southeast 479 551 37,000 60 Level FlightAware
02:30PM 37.4690 24.3670 147° Southeast 478 550 37,100 60 Climbing FlightAware
02:31PM 37.3940 24.4260 148° Southeast 474 545 37,100 -120 Level FlightAware
02:31PM 37.3080 24.4930 148° Southeast 473 544 37,000 -120 Descending FlightAware
02:32PM 37.2370 24.5490 148° Southeast 470 541 37,000  Level FlightAware
02:33PM 37.1610 24.6080 148° Southeast 469 540 37,000  Level FlightAware
02:34PM 37.0800 24.6720 148° Southeast 468 539 37,000 -240 Level FlightAware
02:34PM 37.0050 24.7300 148° Southeast 468 539 36,700 -1,080 Descending FlightAware
02:35PM 36.9240 24.7930 148° Southeast 451 519 35,500 -2,160 Descending FlightAware
02:36PM 36.8520 24.8480 149° Southeast 454 522 33,700 -2,520 Descending FlightAware
02:36PM 36.7810 24.9030 148° Southeast 445 512 32,200 -2,160 Descending FlightAware
02:37PM 36.7050 24.9620 148° Southeast 434 499 30,700 -2,100 Descending FlightAware
02:37PM 36.6620 24.9950 148° Southeast 428 493 29,800 -960 Descending FlightAware
02:38PM 36.6040 25.0400 148° Southeast 428 493 29,700 -120 Descending FlightAware
02:39PM 36.5470 25.0840 148° Southeast 428 493 29,700  Level FlightAware
02:39PM 36.4900 25.1290 148° Southeast 428 493 29,700  Level FlightAware
02:40PM 36.4180 25.1840 148° Southeast 428 493 29,700  Level FlightAware
02:41PM 36.3610 25.2290 148° Southeast 428 493 29,700  Level FlightAware
02:44PM 36.0729 25.2151 182° South  Level Estimated
02:45PM 35.9600 25.2097 182° South  Level Estimated
02:46PM 35.8470 25.2043 182° South  Level Estimated
02:47PM 35.7340 25.1989 182° South  Level Estimated
02:48PM 35.6211 25.1936 182° South  Level Estimated
02:49PM 35.5081 25.1882 182° South  Level Estimated
02:50PM 35.3951 25.1829 182° South  Level Estimated
02:51PM 35.3397 25.1803 182° South  Level Estimated
02:52PM 35.3397 25.1803 248° West  Level Estimated
02:53PM 35.3397 25.1803 248° West  Level Estimated
02:54PM 35.3397 25.1803 248° West  Level Estimated
02:55PM 35.3397 25.1803 248° West  Level Estimated
02:56PM 35.3397 25.1803 248° West  Level Estimated
02:57PM 35.3397 25.1803 248° West  Level Estimated
02:58PM 35.3397 25.1803 248° West  Level Estimated
02:59PM 35.3397 25.1803 248° West  Level Estimated
03:00PM 35.3397 25.1803 248° West  Level Estimated
03:01PM 35.3397 25.1803 248° West  Level Estimated
03:02PM 35.3397 25.1803 248° West  Level Estimated
03:03PM 35.3397 25.1803 248° West  Level Estimated
03:04PM 35.3397 25.1803 248° West  Level Estimated
03:05PM 35.3397 25.1803 248° West  Level Estimated
03:06PM 35.3397 25.1803 248° West  Level Estimated
03:07PM 35.3397 25.1803 248° West  Level Estimated
03:08PM 35.3397 25.1803 248° West  Level Estimated
03:09PM 35.3397 25.1803 248° West  Level Estimated
03:10PM 35.3397 25.1803 248° West  Level Estimated